Time;durP1;ratioP1;P1;durP2;ratioP2;P2;SDS_P1;SDS_P2;PMS_P1;PMS_P2;Temp;Humidity;BMP_temperature;BMP_pressure;BME280_temperature;BME280_humidity;BME280_pressure;Samples;Min_cycle;Max_cycle;Signal;HPM_P1;HPM_P2
2022/09/27 00:00:23;;;;;;;33.97;24.70;;;435.50;2355.20;;;;;;5035336;28;20120;-78
2022/09/27 00:02:50;;;;;;;29.38;22.98;;;435.30;2355.20;;;;;;5035137;28;20040;-78
2022/09/27 00:05:17;;;;;;;34.08;24.75;;;435.20;2355.20;;;;;;5035249;28;20039;-79
2022/09/27 00:07:43;;;;;;;34.17;25.00;;;435.20;2355.20;;;;;;5033577;28;20025;-77
2022/09/27 00:10:09;;;;;;;29.08;20.95;;;410.20;2355.20;;;;;;5034295;28;20478;-79
2022/09/27 00:12:35;;;;;;;42.20;29.55;;;435.30;2355.20;;;;;;5050697;28;20422;-79
2022/09/27 00:15:02;;;;;;;37.28;27.83;;;435.30;2355.20;;;;;;5033955;28;20036;-77
2022/09/27 00:17:28;;;;;;;31.63;23.88;;;435.80;2355.20;;;;;;5052228;28;20537;-77
2022/09/27 00:19:57;;;;;;;31.45;25.20;;;435.50;2355.20;;;;;;5035275;28;20459;-80
2022/09/27 00:22:24;;;;;;;34.45;24.63;;;435.40;2355.20;;;;;;5035221;28;20030;-80
2022/09/27 00:24:50;;;;;;;27.42;22.17;;;435.40;2355.20;;;;;;5034195;28;20471;-79
2022/09/27 00:27:17;;;;;;;27.42;21.92;;;435.50;2355.20;;;;;;5052401;28;20108;-79
2022/09/27 00:29:45;;;;;;;24.83;21.20;;;435.60;2355.20;;;;;;5034063;28;20032;-78
2022/09/27 00:32:12;;;;;;;36.10;26.13;;;435.60;2355.20;;;;;;5032632;28;20124;-79
2022/09/27 00:34:38;;;;;;;31.25;24.55;;;435.40;2355.20;;;;;;5052750;28;20064;-77
2022/09/27 00:37:04;;;;;;;35.97;25.00;;;435.30;2355.20;;;;;;5037813;28;20434;-78
2022/09/27 00:39:30;;;;;;;25.95;21.13;;;435.30;2355.20;;;;;;5037824;28;20033;-78
2022/09/27 00:41:56;;;;;;;29.98;22.92;;;435.30;2355.20;;;;;;5056401;28;20104;-79
2022/09/27 00:44:25;;;;;;;30.08;22.15;;;435.30;2355.20;;;;;;5037763;28;20087;-78
2022/09/27 00:46:59;;;;;;;22.65;19.73;;;435.40;2355.20;;;;;;5038764;28;20079;-80
2022/09/27 00:49:34;;;;;;;24.02;21.13;;;435.50;2355.20;;;;;;5038689;28;20382;-78
2022/09/27 00:52:04;;;;;;;35.30;25.75;;;435.50;2355.20;;;;;;5038313;28;20039;-78
2022/09/27 00:54:33;;;;;;;29.90;23.33;;;435.50;2355.20;;;;;;5038663;28;20124;-77
2022/09/27 00:56:59;;;;;;;32.22;24.35;;;435.30;2355.20;;;;;;5056362;28;20032;-79
2022/09/27 00:59:25;;;;;;;29.15;22.58;;;435.30;2355.20;;;;;;5056063;28;20100;-77
2022/09/27 01:01:51;;;;;;;32.17;23.40;;;435.20;2355.20;;;;;;5038148;28;20120;-79
2022/09/27 01:04:22;;;;;;;26.00;21.10;;;435.30;2355.20;;;;;;5037984;28;20095;-79
2022/09/27 01:06:49;;;;;;;28.02;21.08;;;435.30;2355.20;;;;;;5055991;28;20520;-77
2022/09/27 01:09:15;;;;;;;25.02;20.02;;;435.40;2355.20;;;;;;5038319;28;20029;-78
2022/09/27 01:11:53;;;;;;;28.63;22.30;;;435.50;2355.20;;;;;;5056047;28;20108;-79
2022/09/27 01:14:34;;;;;;;33.70;24.42;;;435.40;2355.20;;;;;;5038339;28;20774;-77
2022/09/27 01:17:40;;;;;;;28.33;22.15;;;435.30;2355.20;;;;;;5038195;28;20029;-80
2022/09/27 01:20:18;;;;;;;28.02;22.77;;;435.30;2355.20;;;;;;5037828;28;20089;-78
2022/09/27 01:23:14;;;;;;;30.40;25.48;;;435.30;2355.20;;;;;;5055924;28;20103;-78
2022/09/27 01:25:49;;;;;;;34.00;27.27;;;435.40;2355.20;;;;;;5055658;28;20402;-78
2022/09/27 01:28:31;;;;;;;33.35;25.92;;;435.40;2355.20;;;;;;5037737;28;20054;-78
2022/09/27 01:31:26;;;;;;;34.88;25.45;;;435.30;2355.20;;;;;;5055964;28;20021;-78
2022/09/27 01:34:10;;;;;;;28.25;22.55;;;435.20;2355.20;;;;;;5037472;28;20124;-79
2022/09/27 01:36:49;;;;;;;34.22;25.88;;;435.20;2355.20;;;;;;5055685;28;20051;-80
2022/09/27 01:39:31;;;;;;;27.83;23.42;;;435.30;2355.20;;;;;;5037766;28;20047;-79
2022/09/27 01:42:03;;;;;;;29.25;23.42;;;435.30;2355.20;;;;;;5037465;28;20040;-79
2022/09/27 01:44:33;;;;;;;26.93;22.30;;;435.30;2355.20;;;;;;5037342;28;20052;-80
2022/09/27 01:47:10;;;;;;;31.73;23.65;;;435.50;2355.20;;;;;;5036876;28;20039;-79
2022/09/27 01:49:59;;;;;;;28.13;23.33;;;435.40;2355.20;;;;;;5037516;28;20025;-79
2022/09/27 01:52:30;;;;;;;27.23;21.45;;;;;;;;;;5055657;28;20040;-78
2022/09/27 01:55:00;;;;;;;25.15;21.90;;;435.60;2355.20;;;;;;5055197;28;20017;-81
2022/09/27 01:57:31;;;;;;;30.42;21.73;;;435.60;2355.20;;;;;;5037280;28;20032;-78
2022/09/27 02:00:23;;;;;;;34.22;24.15;;;435.60;2355.20;;;;;;5037347;28;20033;-80
2022/09/27 02:03:04;;;;;;;31.90;21.70;;;435.60;2355.20;;;;;;5033931;28;20550;-78
2022/09/27 02:05:54;;;;;;;29.98;21.83;;;435.50;2355.20;;;;;;5055417;28;20037;-78
2022/09/27 02:08:42;;;;;;;33.72;21.73;;;435.50;2355.20;;;;;;5052551;28;20025;-79
2022/09/27 02:11:11;;;;;;;41.70;30.38;;;435.40;2355.20;;;;;;5054742;28;20025;-80
2022/09/27 02:13:57;;;;;;;28.52;22.42;;;435.40;2355.20;;;;;;5035448;28;20029;-78
2022/09/27 02:16:41;;;;;;;29.05;20.10;;;435.50;2355.20;;;;;;5036815;28;20086;-80
2022/09/27 02:19:10;;;;;;;26.17;19.98;;;435.50;2355.20;;;;;;5055157;28;20021;-79
2022/09/27 02:21:47;;;;;;;23.90;19.45;;;435.60;2355.20;;;;;;5036950;28;20029;-78
2022/09/27 02:24:20;;;;;;;28.55;22.35;;;435.60;2355.20;;;;;;5053791;28;20037;-78
2022/09/27 02:26:47;;;;;;;;;;;435.40;2355.20;;;;;;5037106;28;20463;-80
2022/09/27 02:29:24;;;;;;;33.75;23.05;;;435.40;2355.20;;;;;;5053333;28;19904;-79
2022/09/27 02:31:50;;;;;;;27.25;21.77;;;435.30;2355.20;;;;;;5036702;28;20035;-80
2022/09/27 02:34:22;;;;;;;26.15;20.83;;;435.30;2355.20;;;;;;5054252;28;20371;-80
2022/09/27 02:36:49;;;;;;;;;;;435.40;2355.20;;;;;;5036817;28;20485;-78
2022/09/27 02:39:17;;;;;;;29.00;20.45;;;435.50;2355.20;;;;;;5036501;28;19995;-78
2022/09/27 02:41:43;;;;;;;33.13;23.10;;;435.50;2355.20;;;;;;5036472;28;20078;-80
2022/09/27 02:44:12;;;;;;;30.95;22.67;;;435.30;2355.20;;;;;;5036096;28;20040;-80
2022/09/27 02:46:55;;;;;;;33.83;23.85;;;435.20;2355.20;;;;;;5053065;28;20028;-79
2022/09/27 02:49:30;;;;;;;31.05;23.17;;;435.20;2355.20;;;;;;5054297;28;20025;-80
2022/09/27 02:52:05;;;;;;;30.88;23.70;;;410.50;2355.20;;;;;;5036075;28;20025;-78
2022/09/27 02:54:46;;;;;;;35.25;23.17;;;410.50;2355.20;;;;;;5054309;28;20024;-78
2022/09/27 02:57:47;;;;;;;30.48;21.95;;;410.50;2355.20;;;;;;5035160;28;20021;-80
2022/09/27 03:00:18;;;;;;;33.72;21.13;;;435.30;2355.20;;;;;;5036251;28;20025;-78
2022/09/27 03:03:12;;;;;;;25.30;18.67;;;435.30;2355.20;;;;;;5036207;28;20063;-80
2022/09/27 03:05:49;;;;;;;28.38;18.63;;;435.30;2355.20;;;;;;5053726;28;20112;-79
2022/09/27 03:08:16;;;;;;;24.67;18.83;;;435.30;2355.20;;;;;;5036116;28;20482;-77
2022/09/27 03:10:41;;;;;;;20.27;16.02;;;435.30;2355.20;;;;;;5036014;28;20116;-80
2022/09/27 03:13:07;;;;;;;19.00;15.05;;;435.40;2355.20;;;;;;5035742;28;20117;-79
2022/09/27 03:15:33;;;;;;;22.85;17.05;;;435.30;2355.20;;;;;;5035967;28;20112;-78
2022/09/27 03:17:59;;;;;;;21.10;15.40;;;410.50;2355.20;;;;;;5053555;28;20033;-78
2022/09/27 03:20:25;;;;;;;21.55;14.90;;;410.50;2355.20;;;;;;5035876;28;20040;-78
2022/09/27 03:22:51;;;;;;;26.67;16.55;;;410.50;2355.20;;;;;;5035883;28;20025;-79
2022/09/27 03:25:17;;;;;;;23.00;15.90;;;435.30;2355.20;;;;;;5035446;28;20478;-80
2022/09/27 03:27:43;;;;;;;25.35;17.02;;;435.30;2355.20;;;;;;5035739;28;20029;-79
2022/09/27 03:30:10;;;;;;;29.90;18.42;;;435.30;2355.20;;;;;;5035785;28;20074;-79
2022/09/27 03:32:35;;;;;;;31.55;18.83;;;410.50;2355.20;;;;;;5034692;28;20424;-78
2022/09/27 03:35:01;;;;;;;30.40;18.20;;;410.40;2355.20;;;;;;5035666;28;20025;-78
2022/09/27 03:37:28;;;;;;;30.50;18.08;;;410.50;2355.20;;;;;;5052466;28;20033;-78
2022/09/27 03:39:54;;;;;;;42.63;19.77;;;410.50;2355.20;;;;;;5053032;28;20078;-78
2022/09/27 03:42:20;;;;;;;39.70;19.80;;;410.50;2355.20;;;;;;5035062;28;20040;-79
2022/09/27 03:44:46;;;;;;;39.78;18.85;;;410.30;2355.20;;;;;;5053505;28;20045;-80
2022/09/27 03:47:11;;;;;;;35.72;19.70;;;410.30;2355.20;;;;;;5060669;28;20028;-80
2022/09/27 03:49:37;;;;;;;47.78;20.92;;;410.40;2355.20;;;;;;5078106;28;20073;-79
2022/09/27 03:52:03;;;;;;;32.05;18.63;;;410.50;2355.20;;;;;;5041885;28;20425;-78
2022/09/27 03:54:29;;;;;;;36.50;19.90;;;435.20;2355.20;;;;;;5035219;28;20029;-78
2022/09/27 03:56:55;;;;;;;82.82;21.40;;;435.20;2355.20;;;;;;5035400;28;20036;-79
2022/09/27 03:59:21;;;;;;;44.55;19.45;;;410.50;2355.20;;;;;;5035306;28;20059;-78
2022/09/27 04:01:46;;;;;;;36.53;17.65;;;410.40;2355.20;;;;;;5053091;28;20022;-79
2022/09/27 04:04:12;;;;;;;31.60;18.00;;;410.50;2355.20;;;;;;5035366;28;20064;-78
2022/09/27 04:06:38;;;;;;;48.95;19.05;;;410.50;2355.20;;;;;;5053071;28;20088;-78
2022/09/27 04:09:04;;;;;;;39.17;18.27;;;410.50;2355.20;;;;;;5036763;28;20059;-77
2022/09/27 04:11:30;;;;;;;33.80;17.40;;;410.50;2355.20;;;;;;5038990;28;20082;-78
2022/09/27 04:13:55;;;;;;;61.13;19.05;;;435.20;2355.20;;;;;;5039003;28;20047;-77
2022/09/27 04:16:22;;;;;;;37.65;19.42;;;410.50;2355.20;;;;;;5039274;28;20021;-77
2022/09/27 04:18:47;;;;;;;41.55;18.75;;;410.50;2355.20;;;;;;5057122;28;20036;-79
2022/09/27 04:21:13;;;;;;;31.92;18.38;;;435.20;2355.20;;;;;;5056840;28;20025;-79
2022/09/27 04:23:39;;;;;;;38.40;17.90;;;435.20;2355.20;;;;;;5039124;28;20039;-78
2022/09/27 04:26:05;;;;;;;34.97;17.88;;;435.20;2355.20;;;;;;5057049;28;20036;-79
2022/09/27 04:28:31;;;;;;;35.70;16.40;;;435.30;2355.20;;;;;;5056403;28;20379;-78
2022/09/27 04:30:57;;;;;;;35.65;20.60;;;435.30;2355.20;;;;;;5039052;28;20052;-79
2022/09/27 04:33:23;;;;;;;33.67;18.63;;;435.30;2355.20;;;;;;5056879;28;20086;-80
2022/09/27 04:38:33;;;;;;;37.72;20.15;;;435.40;2355.20;;;;;;5056904;28;20086;-80
2022/09/27 04:41:01;;;;;;;36.33;19.15;;;435.30;2355.20;;;;;;5038844;28;20074;-79
2022/09/27 04:43:28;;;;;;;35.70;19.65;;;435.30;2355.20;;;;;;5038146;28;20048;-79
2022/09/27 04:45:54;;;;;;;36.53;20.63;;;435.30;2355.20;;;;;;5056353;28;20025;-78
2022/09/27 04:48:19;;;;;;;44.17;22.80;;;435.30;2355.20;;;;;;5056645;28;20360;-80
2022/09/27 04:50:45;;;;;;;40.15;23.52;;;435.30;2355.20;;;;;;5038367;28;20020;-78
2022/09/27 04:53:14;;;;;;;47.67;22.83;;;435.40;2355.20;;;;;;5056775;28;20040;-79
2022/09/27 04:55:45;;;;;;;42.63;24.63;;;435.40;2355.20;;;;;;5038574;28;20478;-77
2022/09/27 04:58:11;;;;;;;43.38;22.92;;;435.40;2355.20;;;;;;5038214;28;20055;-80
2022/09/27 05:00:36;;;;;;;63.35;25.65;;;435.40;2355.20;;;;;;5038441;28;20110;-78
2022/09/27 05:03:02;;;;;;;58.28;25.85;;;435.30;2355.20;;;;;;5038115;28;20122;-78
2022/09/27 05:05:28;;;;;;;48.80;25.55;;;410.50;2355.20;;;;;;5038312;28;20029;-78
2022/09/27 05:07:54;;;;;;;50.03;26.85;;;435.30;2355.20;;;;;;5056255;28;20040;-78
2022/09/27 05:10:20;;;;;;;45.83;24.30;;;435.30;2355.20;;;;;;5055632;28;20060;-78
2022/09/27 05:12:45;;;;;;;70.97;27.77;;;435.30;2355.20;;;;;;5038247;28;20389;-78
2022/09/27 05:15:11;;;;;;;44.55;25.02;;;435.30;2355.20;;;;;;5038237;28;20033;-80
2022/09/27 05:17:37;;;;;;;53.10;27.33;;;435.30;2355.20;;;;;;5037575;28;20025;-79
2022/09/27 05:20:04;;;;;;;45.67;26.38;;;435.40;2355.20;;;;;;5055280;28;20021;-78
2022/09/27 05:22:29;;;;;;;45.35;26.40;;;435.40;2355.20;;;;;;5055878;28;20044;-79
2022/09/27 05:24:55;;;;;;;37.28;24.08;;;435.40;2355.20;;;;;;5055602;28;20025;-79
2022/09/27 05:27:21;;;;;;;41.70;23.42;;;435.40;2355.20;;;;;;5038075;28;20083;-78
2022/09/27 05:29:47;;;;;;;41.08;24.02;;;435.40;2355.20;;;;;;5037948;28;20107;-77
2022/09/27 05:32:14;;;;;;;34.75;21.90;;;435.40;2355.20;;;;;;5055838;28;20425;-77
2022/09/27 05:34:40;;;;;;;37.80;22.63;;;435.50;2355.20;;;;;;5055733;28;20029;-77
2022/09/27 05:37:06;;;;;;;35.47;22.33;;;435.50;2355.20;;;;;;5055695;28;20071;-77
2022/09/27 05:39:32;;;;;;;36.35;23.05;;;435.50;2355.20;;;;;;5055374;28;20036;-79
2022/09/27 05:41:58;;;;;;;41.90;24.33;;;435.60;2355.20;;;;;;5055317;28;20021;-78
2022/09/27 05:44:24;;;;;;;44.97;25.50;;;435.60;2355.20;;;;;;5055635;28;20045;-78
2022/09/27 05:46:51;;;;;;;46.72;28.38;;;;;;;;;;5054984;28;20032;-78
2022/09/27 05:49:17;;;;;;;46.30;28.38;;;;;;;;;;5037629;28;20035;-77
2022/09/27 05:51:43;;;;;;;47.55;28.08;;;;;;;;;;5055446;28;20475;-77
2022/09/27 05:54:09;;;;;;;39.05;25.65;;;;;;;;;;5037171;28;20032;-78
2022/09/27 05:56:35;;;;;;;45.42;26.55;;;;;;;;;;5037465;28;20028;-78
2022/09/27 05:59:01;;;;;;;48.08;26.40;;;;;;;;;;5037095;28;20359;-77
2022/09/27 06:01:28;;;;;;;39.75;25.90;;;;;;;;;;5037405;28;20029;-78
2022/09/27 06:03:54;;;;;;;46.08;26.95;;;;;;;;;;5037145;28;20501;-78
2022/09/27 06:06:22;;;;;;;39.17;24.13;;;;;;;;;;5037025;28;20029;-78
2022/09/27 06:08:48;;;;;;;37.63;24.13;;;;;;;;;;5055088;28;20518;-77
2022/09/27 06:11:15;;;;;;;34.10;23.23;;;;;;;;;;5055003;28;20090;-77
2022/09/27 06:13:41;;;;;;;30.80;20.20;;;;;;;;;;5036716;28;20029;-77
2022/09/27 06:16:09;;;;;;;28.10;19.33;;;;;;;;;;5054936;28;20021;-76
2022/09/27 06:18:36;;;;;;;35.25;21.77;;;;;;;;;;5054897;28;20021;-78
2022/09/27 06:21:03;;;;;;;23.35;17.05;;;;;;;;;;5036786;28;20374;-77
2022/09/27 06:23:32;;;;;;;31.58;20.20;;;;;;;;;;5036908;28;20078;-77
2022/09/27 06:26:03;;;;;;;37.10;25.02;;;;;;;;;;5036966;28;20530;-77
2022/09/27 06:28:30;;;;;;;38.35;26.70;;;;;;;;;;5036518;28;20028;-78
2022/09/27 06:30:56;;;;;;;39.13;29.52;;;;;;;;;;5036714;28;20070;-77
2022/09/27 06:33:22;;;;;;;48.13;38.42;;;;;;;;;;5054094;28;20025;-78
2022/09/27 06:35:48;;;;;;;55.22;46.13;;;;;;;;;;5036108;28;20025;-77
2022/09/27 06:38:16;;;;;;;56.85;45.17;;;;;;;;;;5053763;28;20025;-77
2022/09/27 06:40:45;;;;;;;39.97;28.90;;;;;;;;;;5036255;28;20017;-77
2022/09/27 06:43:16;;;;;;;34.92;25.50;;;;;;;;;;5035931;28;20041;-77
2022/09/27 06:45:42;;;;;;;38.83;26.20;;;;;;;;;;5054409;28;20478;-78
2022/09/27 06:48:11;;;;;;;33.30;25.15;;;;;;;;;;5054325;28;20083;-77
2022/09/27 06:50:38;;;;;;;39.60;30.77;;;;;;;;;;5036428;28;20025;-79
2022/09/27 06:53:05;;;;;;;31.70;25.95;;;;;;;;;;5036357;28;20392;-77
2022/09/27 06:55:31;;;;;;;33.33;25.35;;;;;;;;;;5035963;28;20464;-78
2022/09/27 07:00:46;;;;;;;27.23;22.05;;;;;;;;;;5054179;28;20032;-77
2022/09/27 07:03:13;;;;;;;31.80;24.55;;;;;;;;;;5035861;28;20029;-79
2022/09/27 07:05:41;;;;;;;30.35;23.63;;;;;;;;;;5036188;28;20108;-78
2022/09/27 07:08:08;;;;;;;37.33;27.88;;;;;;;;;;5054015;28;20013;-78
2022/09/27 07:10:36;;;;;;;36.50;27.73;;;;;;;;;;5026673;28;20021;-77
2022/09/27 07:13:09;;;;;;;39.53;28.63;;;;;;;;;;5051147;28;20462;-77
2022/09/27 07:15:36;;;;;;;36.28;27.25;;;;;;;;;;5034838;28;20037;-77
2022/09/27 07:18:03;;;;;;;37.13;27.90;;;461.10;2380.80;;;;;;5032307;28;20017;-76
2022/09/27 07:20:30;;;;;;;35.97;28.85;;;460.90;2380.80;;;;;;5052027;28;20020;-76
2022/09/27 07:22:56;;;;;;;33.50;25.75;;;461.00;2380.80;;;;;;5033773;28;20033;-82
2022/09/27 07:25:23;;;;;;;32.88;29.15;;;461.10;2380.80;;;;;;5052461;28;20021;-82
2022/09/27 07:27:51;;;;;;;30.65;25.92;;;;;;;;;;5034453;28;20033;-83
2022/09/27 07:30:17;;;;;;;33.03;26.65;;;;;;;;;;5035925;28;20532;-83
2022/09/27 07:32:44;;;;;;;39.35;32.20;;;461.40;2380.80;;;;;;5034875;28;20029;-82
2022/09/27 07:35:10;;;;;;;36.08;28.65;;;461.20;2380.80;;;;;;5038070;28;20040;-84
2022/09/27 07:37:37;;;;;;;31.00;25.83;;;460.80;2380.80;;;;;;5034820;28;20462;-83
2022/09/27 07:40:08;;;;;;;34.00;27.30;;;461.20;2380.80;;;;;;5039369;28;20021;-83
2022/09/27 07:42:37;;;;;;;34.42;29.27;;;461.30;2380.80;;;;;;5034387;28;20025;-82
2022/09/27 07:45:05;;;;;;;35.95;29.80;;;461.60;2380.80;;;;;;5034389;28;20029;-83
2022/09/27 07:47:32;;;;;;;31.60;27.30;;;461.50;2380.80;;;;;;5034916;28;20033;-83
2022/09/27 07:49:57;;;;;;;34.00;26.77;;;461.70;2380.80;;;;;;5037398;28;20079;-84
2022/09/27 07:52:23;;;;;;;32.88;29.25;;;;;;;;;;5035248;28;20418;-84
2022/09/27 07:54:50;;;;;;;35.35;28.90;;;;;;;;;;5035062;28;20017;-83
2022/09/27 07:57:16;;;;;;;34.35;30.60;;;;;;;;;;5035988;28;20054;-84
2022/09/27 07:59:42;;;;;;;33.85;30.20;;;;;;;;;;5034451;28;20032;-84
2022/09/27 08:02:14;;;;;;;33.88;30.23;;;486.90;2380.80;;;;;;5031027;28;20119;-84
2022/09/27 08:04:42;;;;;;;33.92;29.30;;;486.80;2380.80;;;;;;5035410;28;20182;-84
2022/09/27 08:07:09;;;;;;;39.92;35.70;;;487.10;2380.80;;;;;;5035008;28;20029;-84
2022/09/27 08:09:35;;;;;;;29.90;26.80;;;487.30;2380.80;;;;;;5051671;28;20474;-83
2022/09/27 08:12:03;;;;;;;24.55;21.88;;;487.00;2380.80;;;;;;5034610;28;20036;-85
2022/09/27 08:14:29;;;;;;;21.23;18.13;;;487.10;2380.80;;;;;;5035082;28;20082;-84
2022/09/27 08:16:55;;;;;;;32.60;24.67;;;487.00;2380.80;;;;;;5035026;28;20017;-85
2022/09/27 08:19:21;;;;;;;22.38;19.95;;;487.00;2380.80;;;;;;5034756;28;20048;-85
2022/09/27 08:21:47;;;;;;;22.42;20.00;;;487.00;2380.80;;;;;;5052502;28;20053;-84
2022/09/27 08:24:13;;;;;;;27.33;24.10;;;487.00;2380.80;;;;;;5034858;28;20029;-86
2022/09/27 08:26:39;;;;;;;24.25;20.80;;;487.10;2380.80;;;;;;5034732;28;20039;-84
2022/09/27 08:29:05;;;;;;;28.80;25.88;;;487.20;2380.80;;;;;;5034690;28;20025;-86
2022/09/27 08:31:31;;;;;;;22.75;20.05;;;487.30;2380.80;;;;;;5049151;28;20025;-83
2022/09/27 08:33:57;;;;;;;18.48;16.63;;;487.20;2380.80;;;;;;5035039;28;20025;-84
2022/09/27 08:36:23;;;;;;;22.40;20.02;;;487.10;2380.80;;;;;;5044852;28;20489;-87
2022/09/27 08:38:49;;;;;;;23.50;18.75;;;487.10;2380.80;;;;;;5037186;28;20033;-84
2022/09/27 08:41:32;;;;;;;21.92;16.35;;;487.30;2380.80;;;;;;5035245;28;20021;-85
2022/09/27 08:44:14;;;;;;;14.10;12.70;;;487.30;2380.80;;;;;;5066532;28;20132;-86
2022/09/27 08:47:18;;;;;;;15.23;11.53;;;512.00;2380.80;;;;;;5035122;28;20051;-86
2022/09/27 08:50:27;;;;;;;10.38;8.68;;;512.00;2380.80;;;;;;5038705;28;20017;-85
2022/09/27 08:53:04;;;;;;;10.82;9.55;;;512.00;2380.80;;;;;;4991099;28;20029;-85
2022/09/27 08:55:43;;;;;;;14.85;13.35;;;512.00;2380.80;;;;;;4994093;28;20034;-86
2022/09/27 08:58:24;;;;;;;17.10;15.40;;;512.40;2380.80;;;;;;5040056;28;20032;-86
2022/09/27 09:00:55;;;;;;;11.90;10.70;;;512.30;2380.80;;;;;;5039310;28;20062;-85
2022/09/27 09:03:30;;;;;;;15.52;12.45;;;512.50;2380.80;;;;;;5038806;28;20021;-87
2022/09/27 09:06:21;;;;;;;12.07;10.80;;;512.50;2380.80;;;;;;5038642;28;20033;-85
2022/09/27 09:09:00;;;;;;;11.45;9.13;;;;;;;;;;5041658;28;20037;-85
2022/09/27 09:14:26;;;;;;;12.88;11.57;;;;;;;;;;5056337;28;20036;-85
2022/09/27 09:17:11;;;;;;;13.27;11.13;;;;;;;;;;5054796;28;20021;-86
2022/09/27 09:19:56;;;;;;;11.95;10.60;;;;;;;;;;5055300;28;20051;-85
2022/09/27 09:22:38;;;;;;;11.43;10.32;;;;;;;;;;5056693;28;20025;-85
2022/09/27 09:25:14;;;;;;;9.02;8.13;;;;;;;;;;5032920;28;20364;-83
2022/09/27 09:27:49;;;;;;;14.60;13.10;;;;;;;;;;5034472;28;20110;-86
2022/09/27 09:30:15;;;;;;;12.98;11.38;;;;;;;;;;5018297;28;20422;-81
2022/09/27 09:32:44;;;;;;;8.77;7.85;;;;;;;;;;5018150;28;20083;-86
2022/09/27 09:35:17;;;;;;;12.43;11.32;;;;;;;;;;5034436;28;20128;-81
2022/09/27 09:37:49;;;;;;;18.10;16.30;;;;;;;;;;5018437;28;20470;-82
2022/09/27 09:40:15;;;;;;;16.23;14.63;;;;;;;;;;5018154;28;20021;-83
2022/09/27 09:43:01;;;;;;;13.43;12.02;;;;;;;;;;5018598;28;20384;-83
2022/09/27 09:45:36;;;;;;;13.07;11.75;;;;;;;;;;5033615;28;20045;-83
2022/09/27 09:48:05;;;;;;;21.75;15.13;;;;;;;;;;5038488;28;20024;-83
2022/09/27 09:50:36;;;;;;;18.90;16.92;;;;;;;;;;5023388;28;20029;-83
2022/09/27 09:53:35;;;;;;;111.43;99.07;;;;;;;;;;5035347;28;20033;-80
2022/09/27 09:56:20;;;;;;;15.63;13.90;;;;;;;;;;5011716;28;20065;-84
2022/09/27 09:58:49;;;;;;;26.75;24.02;;;;;;;;;;5034275;28;20361;-84
2022/09/27 10:01:39;;;;;;;16.50;13.45;;;537.60;2406.40;;;;;;5034232;28;20025;-83
2022/09/27 10:04:05;;;;;;;13.57;12.18;;;;;;;;;;5034189;28;20048;-84
2022/09/27 10:06:32;;;;;;;9.65;8.65;;;;;;;;;;5034049;28;20112;-83
2022/09/27 10:08:59;;;;;;;10.68;9.13;;;537.90;2406.40;;;;;;5034155;28;20064;-84
2022/09/27 10:11:26;;;;;;;9.30;7.50;;;;;;;;;;5034507;28;20056;-84
2022/09/27 10:13:54;;;;;;;9.45;8.55;;;;;;;;;;5034330;28;20032;-84
2022/09/27 10:16:21;;;;;;;9.93;8.82;;;538.50;2406.40;;;;;;5030801;28;20541;-84
2022/09/27 10:18:49;;;;;;;8.55;6.70;;;;;;;;;;5018648;28;20029;-83
2022/09/27 10:21:19;;;;;;;9.02;8.10;;;;;;;;;;5030416;28;20032;-85
2022/09/27 10:24:05;;;;;;;10.68;7.28;;;;;;;;;;5030305;28;20030;-84
2022/09/27 10:26:31;;;;;;;6.63;5.93;;;;;;;;;;5030864;28;20030;-85
2022/09/27 10:28:58;;;;;;;11.82;6.15;;;;;;;;;;5030495;28;20113;-82
2022/09/27 10:31:24;;;;;;;10.23;8.27;;;;;;;;;;5030539;28;20022;-83
2022/09/27 10:33:55;;;;;;;10.38;9.00;;;;;;;;;;5014831;28;20037;-83
2022/09/27 10:36:25;;;;;;;9.60;7.85;;;;;;;;;;5030214;28;20026;-83
2022/09/27 10:38:53;;;;;;;8.80;7.22;;;;;;;;;;5030215;28;20022;-84
2022/09/27 10:41:33;;;;;;;9.82;7.53;;;;;;;;;;5015863;28;20073;-82
2022/09/27 10:44:14;;;;;;;8.68;7.78;;;;;;;;;;5043797;28;20132;-81
2022/09/27 10:46:42;;;;;;;10.40;8.00;;;;;;;;;;5033234;28;20030;-82
2022/09/27 10:49:17;;;;;;;9.23;8.40;;;;;;;;;;5033363;28;20109;-83
2022/09/27 10:51:44;;;;;;;8.68;7.72;;;;;;;;;;5024477;28;20062;-83
2022/09/27 10:54:20;;;;;;;12.52;7.55;;;;;;;;;;5049554;28;20036;-83
2022/09/27 10:56:54;;;;;;;13.93;10.93;;;;;;;;;;5045524;28;20037;-81
2022/09/27 10:59:21;;;;;;;14.90;10.85;;;;;;;;;;5031146;28;20053;-81
2022/09/27 11:01:49;;;;;;;13.38;11.65;;;;;;;;;;5056877;28;20010;-81
2022/09/27 11:04:34;;;;;;;10.00;8.50;;;;;;;;;;5056222;28;20045;-82
2022/09/27 11:07:13;;;;;;;11.68;8.68;;;;;;;;;;5061457;28;20033;-81
2022/09/27 11:09:53;;;;;;;8.38;7.47;;;;;;;;;;5037994;28;20021;-82
2022/09/27 11:12:21;;;;;;;10.18;8.00;;;;;;;;;;5053638;28;20032;-83
2022/09/27 11:15:14;;;;;;;9.98;9.07;;;564.10;2432.00;;;;;;5050613;28;20026;-84
2022/09/27 11:18:00;;;;;;;;;;;564.00;2432.00;;;;;;5033311;28;20029;-82
2022/09/27 11:20:55;;;;;;;14.30;9.30;;;564.10;2432.00;;;;;;5031142;28;20278;-84
2022/09/27 11:24:02;;;;;;;5.80;4.35;;;589.10;2432.00;;;;;;5028010;28;20026;-82
2022/09/27 11:26:46;;;;;;;5.45;4.78;;;589.60;2432.00;;;;;;5017002;28;20045;-84
2022/09/27 11:29:12;;;;;;;6.00;2.78;;;614.80;2432.00;;;;;;5063142;28;20028;-83
2022/09/27 11:32:15;;;;;;;8.00;3.33;;;614.90;2432.00;;;;;;5031801;28;20025;-84
2022/09/27 11:34:48;;;;;;;;;;;615.10;2432.00;;;;;;5061681;28;20383;-82
2022/09/27 11:37:26;;;;;;;9.65;6.68;;;615.20;2432.00;;;;;;5046913;28;20018;-83
2022/09/27 11:40:20;;;;;;;5.53;4.07;;;614.80;2432.00;;;;;;5032007;28;20030;-85
2022/09/27 11:43:08;;;;;;;7.90;3.45;;;615.30;2432.00;;;;;;5064814;28;20063;-84
2022/09/27 11:46:08;;;;;;;5.72;3.08;;;640.20;2432.00;;;;;;5065552;28;20037;-84
2022/09/27 11:49:10;;;;;;;6.53;3.42;;;640.50;2432.00;;;;;;5031609;28;20430;-85
2022/09/27 11:51:44;;;;;;;9.35;7.63;;;665.60;2432.00;;;;;;5032480;28;20036;-83
2022/09/27 11:54:28;;;;;;;4.97;3.38;;;665.70;2432.00;;;;;;5032310;28;20549;-83
2022/09/27 11:57:07;;;;;;;9.90;4.45;;;665.60;2432.00;;;;;;5032425;28;20411;-84
2022/09/27 11:59:33;;;;;;;6.25;4.65;;;665.80;2432.00;;;;;;5032084;28;20025;-85
2022/09/27 12:02:10;;;;;;;9.68;2.80;;;665.80;2432.00;;;;;;5032337;28;20086;-84
2022/09/27 12:04:51;;;;;;;7.30;2.70;;;665.80;2432.00;;;;;;5032197;28;20038;-86
2022/09/27 12:07:34;;;;;;;8.13;5.47;;;666.20;2432.00;;;;;;5031883;28;20084;-80
2022/09/27 12:10:12;;;;;;;6.40;2.75;;;666.30;2432.00;;;;;;5032063;28;20079;-79
2022/09/27 12:12:43;;;;;;;7.57;3.25;;;691.30;2432.00;;;;;;5032228;28;20025;-82
2022/09/27 12:15:23;;;;;;;4.88;3.15;;;691.20;2432.00;;;;;;5032039;28;20138;-82
2022/09/27 12:17:55;;;;;;;5.40;2.00;;;691.20;2432.00;;;;;;5032003;28;20026;-82
2022/09/27 12:20:27;;;;;;;4.82;1.92;;;691.20;2432.00;;;;;;5032015;28;20030;-83
2022/09/27 12:23:00;;;;;;;5.13;2.25;;;691.30;2432.00;;;;;;5032224;28;20029;-81
2022/09/27 12:25:30;;;;;;;6.03;2.50;;;691.60;2432.00;;;;;;5031563;28;20042;-80
2022/09/27 12:28:08;;;;;;;8.05;2.15;;;691.80;2432.00;;;;;;5032999;28;20025;-79
2022/09/27 12:30:39;;;;;;;5.28;2.00;;;691.20;2432.00;;;;;;5034375;28;20355;-80
2022/09/27 12:33:34;;;;;;;5.05;2.78;;;666.50;2432.00;;;;;;5035931;28;20028;-79
2022/09/27 12:36:06;;;;;;;3.17;1.77;;;691.20;2432.00;;;;;;5035529;28;20044;-81
2022/09/27 12:39:08;;;;;;;9.10;3.15;;;691.60;2432.00;;;;;;5035617;28;20043;-80
2022/09/27 12:41:40;;;;;;;7.78;2.63;;;691.60;2432.00;;;;;;5050449;28;20030;-82
2022/09/27 12:44:10;;;;;;;4.40;2.55;;;691.60;2432.00;;;;;;5033364;28;20053;-81
2022/09/27 12:47:06;;;;;;;6.30;4.07;;;691.60;2432.00;;;;;;5035347;28;20029;-82
2022/09/27 12:49:48;;;;;;;4.15;2.42;;;691.70;2432.00;;;;;;5067836;28;20033;-82
2022/09/27 12:52:24;;;;;;;5.57;2.90;;;691.60;2432.00;;;;;;5035164;28;20487;-82
2022/09/27 12:55:15;;;;;;;6.18;4.57;;;692.00;2432.00;;;;;;5028620;28;20080;-83
2022/09/27 12:58:03;;;;;;;6.32;3.30;;;692.10;2380.80;;;;;;5034318;28;20459;-83
2022/09/27 13:00:42;;;;;;;5.03;2.85;;;692.10;2355.20;;;;;;5051760;28;20037;-80
2022/09/27 13:03:42;;;;;;;8.98;2.75;;;716.90;2380.80;;;;;;5067713;28;20038;-79
2022/09/27 13:06:15;;;;;;;4.03;2.50;;;716.80;2329.60;;;;;;5015431;28;20428;-79
2022/09/27 13:08:49;;;;;;;4.47;2.60;;;691.60;2380.80;;;;;;5047141;28;20064;-82
2022/09/27 13:11:18;;;;;;;7.10;4.13;;;692.10;2355.20;;;;;;5048040;28;20546;-80